Time;durP1;ratioP1;P1;durP2;ratioP2;P2;SDS_P1;SDS_P2;PMS_P1;PMS_P2;Temp;Humidity;BMP_temperature;BMP_pressure;BME280_temperature;BME280_humidity;BME280_pressure;Samples;Min_cycle;Max_cycle;Signal;HPM_P1;HPM_P2
2022/03/11 00:00:36;;;;;;;10.27;7.15;;;;;;;4.95;48.46;96973.56;5110793;28;20388;-61
2022/03/11 00:03:01;;;;;;;9.13;7.10;;;;;;;4.98;48.56;96971.38;5111768;28;20441;-61
2022/03/11 00:05:28;;;;;;;14.23;8.20;;;;;;;4.78;49.92;96962.63;5093795;28;20396;-61
2022/03/11 00:07:53;;;;;;;10.45;8.07;;;;;;;4.81;49.20;96962.25;5112252;28;20390;-61
2022/03/11 00:10:19;;;;;;;11.37;7.57;;;;;;;4.76;50.19;96959.41;5112152;28;20886;-61
2022/03/11 00:12:44;;;;;;;12.32;7.72;;;;;;;4.72;49.90;96958.16;5111774;28;20714;-62
2022/03/11 00:15:09;;;;;;;10.97;7.67;;;;;;;4.61;51.26;96953.47;5112280;28;21234;-61
2022/03/11 00:17:35;;;;;;;11.57;8.57;;;;;;;4.53;50.72;96953.56;5111810;28;20380;-61
2022/03/11 00:20:02;;;;;;;11.45;7.93;;;;;;;4.55;51.50;96959.41;5093672;28;20380;-62
2022/03/11 00:22:28;;;;;;;11.67;8.00;;;;;;;4.66;51.53;96945.94;5111361;28;20418;-61
2022/03/11 00:24:53;;;;;;;13.98;8.45;;;;;;;4.47;51.45;96949.13;5112102;28;20388;-61
2022/03/11 00:27:18;;;;;;;11.97;8.97;;;;;;;4.48;52.06;96951.53;5111434;28;20448;-61
2022/03/11 00:29:44;;;;;;;13.20;9.60;;;;;;;4.45;52.41;96946.72;5111487;28;20845;-61
2022/03/11 00:32:09;;;;;;;11.25;8.55;;;;;;;4.44;52.37;96944.31;5111867;28;20723;-61
2022/03/11 00:34:35;;;;;;;12.47;8.87;;;;;;;4.47;52.45;96941.34;5093950;28;20400;-61
2022/03/11 00:37:00;;;;;;;13.60;9.73;;;;;;;4.41;52.60;96948.06;5112083;28;20392;-61
2022/03/11 00:39:27;;;;;;;13.23;8.98;;;;;;;4.39;53.17;96949.25;5111624;28;20404;-61
2022/03/11 00:41:53;;;;;;;14.05;9.65;;;;;;;4.27;53.34;96950.72;5111451;28;20404;-61
2022/03/11 00:44:20;;;;;;;13.23;9.70;;;;;;;4.22;53.59;96947.84;5111703;28;20395;-62
2022/03/11 00:46:46;;;;;;;12.50;9.45;;;;;;;4.40;53.86;96956.06;5111815;28;20394;-62
2022/03/11 00:49:11;;;;;;;12.35;9.30;;;;;;;4.30;53.35;96945.13;5111765;28;20849;-62
2022/03/11 00:51:36;;;;;;;13.00;9.60;;;;;;;4.29;53.78;96946.16;5111351;28;20388;-62
2022/03/11 00:54:02;;;;;;;17.07;9.37;;;;;;;4.19;53.58;96949.00;5112904;28;20689;-62
2022/03/11 00:56:30;;;;;;;13.43;8.53;;;;;;;4.10;54.73;96947.53;5112697;28;20187;-62
2022/03/11 00:58:55;;;;;;;11.97;8.10;;;;;;;4.02;54.89;96943.22;5112167;28;20184;-62
2022/03/11 01:01:21;;;;;;;11.90;8.33;;;;;;;3.87;55.78;96946.84;5112430;28;20250;-62
2022/03/11 01:03:46;;;;;;;13.67;9.10;;;;;;;3.80;55.53;96951.13;5112488;28;20195;-62
2022/03/11 01:06:11;;;;;;;14.97;9.80;;;;;;;3.78;55.68;96945.34;5112812;28;20188;-62
2022/03/11 01:08:37;;;;;;;15.33;8.43;;;;;;;3.86;55.68;96947.81;5112732;28;20214;-62
2022/03/11 01:11:02;;;;;;;12.30;8.80;;;;;;;3.78;56.07;96953.91;5094467;28;20275;-62
2022/03/11 01:13:27;;;;;;;13.20;8.50;;;;;;;3.64;55.93;96952.91;5097542;28;20187;-62
2022/03/11 01:15:53;;;;;;;11.63;8.50;;;;;;;3.64;56.53;96946.94;5116382;28;20202;-62
2022/03/11 01:18:18;;;;;;;12.43;8.50;;;;;;;3.57;56.69;96939.06;5116049;28;20194;-63
2022/03/11 01:20:43;;;;;;;14.73;9.77;;;;;;;3.50;56.51;96939.97;5116108;28;20184;-62
2022/03/11 01:23:09;;;;;;;14.73;9.27;;;;;;;3.56;56.72;96937.47;5116057;28;20223;-62
2022/03/11 01:25:34;;;;;;;16.80;8.73;;;;;;;3.51;57.78;96939.00;5116096;28;20553;-62
2022/03/11 01:28:00;;;;;;;18.20;9.63;;;;;;;3.51;57.32;96936.41;5116440;28;20262;-62
2022/03/11 01:30:25;;;;;;;16.63;9.87;;;;;;;3.40;57.38;96926.50;5115602;28;20283;-63
2022/03/11 01:32:50;;;;;;;17.30;10.27;;;;;;;3.45;57.58;96926.75;5115746;28;20192;-62
2022/03/11 01:35:16;;;;;;;14.97;9.07;;;;;;;3.44;57.09;96925.13;5116347;28;20207;-62
2022/03/11 01:37:42;;;;;;;12.97;10.03;;;;;;;3.39;58.24;96928.28;5116041;28;20248;-62
2022/03/11 01:40:08;;;;;;;15.53;10.40;;;;;;;3.40;57.54;96932.44;5115617;28;20294;-62
2022/03/11 01:42:36;;;;;;;14.73;10.37;;;;;;;3.25;58.04;96926.47;5115853;28;20223;-62
2022/03/11 01:45:03;;;;;;;14.07;9.80;;;;;;;3.19;57.76;96927.97;5116299;28;20191;-62
2022/03/11 01:47:31;;;;;;;19.60;10.57;;;;;;;3.16;58.23;96925.75;5115741;28;20198;-62
2022/03/11 01:49:56;;;;;;;17.67;11.20;;;;;;;3.26;58.19;96928.88;5115839;28;20286;-62
2022/03/11 01:52:22;;;;;;;16.00;10.83;;;;;;;3.22;58.29;96932.00;5115234;28;20575;-62
2022/03/11 01:54:49;;;;;;;18.90;10.60;;;;;;;3.03;58.74;96925.53;5115292;28;20187;-62
2022/03/11 01:57:14;;;;;;;15.77;9.60;;;;;;;3.04;58.69;96928.94;5115755;28;20188;-62
2022/03/11 01:59:40;;;;;;;16.30;11.03;;;;;;;2.99;58.47;96923.47;5114745;28;20188;-63
2022/03/11 02:02:06;;;;;;;18.13;10.70;;;;;;;3.02;58.68;96925.69;5115154;28;20195;-62
2022/03/11 02:04:31;;;;;;;19.83;13.13;;;;;;;2.92;58.96;96915.59;5115551;28;20198;-62
2022/03/11 02:06:57;;;;;;;16.40;11.23;;;;;;;2.86;59.45;96916.28;5115298;28;20176;-62
2022/03/11 02:09:23;;;;;;;17.17;11.07;;;;;;;2.85;59.13;96920.66;5115640;28;20241;-62
2022/03/11 02:11:48;;;;;;;17.70;10.60;;;;;;;2.75;60.10;96920.09;5114991;28;20199;-62
2022/03/11 02:14:14;;;;;;;19.13;10.87;;;;;;;2.82;59.83;96913.25;5115174;28;20217;-62
2022/03/11 02:16:40;;;;;;;17.07;10.90;;;;;;;2.64;59.92;96907.59;5115478;28;20214;-62
2022/03/11 02:19:06;;;;;;;18.50;11.43;;;;;;;2.62;60.54;96911.34;5115296;28;20188;-62
2022/03/11 02:21:41;;;;;;;16.93;10.83;;;;;;;2.68;60.11;96914.00;5114767;28;20223;-62
2022/03/11 02:24:09;;;;;;;19.80;11.60;;;;;;;2.62;60.75;96904.34;5114566;28;20186;-62
2022/03/11 02:26:35;;;;;;;19.40;12.00;;;;;;;2.50;60.39;96901.41;5114734;28;20184;-62
2022/03/11 02:29:01;;;;;;;18.27;12.00;;;;;;;2.49;60.81;96902.38;5115056;28;20180;-62
2022/03/11 02:31:28;;;;;;;18.40;11.20;;;;;;;2.48;61.10;96903.34;5114722;28;20671;-62
2022/03/11 02:33:54;;;;;;;18.57;12.30;;;;;;;2.35;61.38;96910.84;5115316;28;20713;-62
2022/03/11 02:36:20;;;;;;;19.97;12.33;;;;;;;2.37;61.96;96910.69;5114743;28;20550;-62
2022/03/11 02:38:45;;;;;;;18.63;12.10;;;;;;;2.34;61.94;96904.06;5114636;28;20227;-62
2022/03/11 02:41:11;;;;;;;18.40;11.47;;;;;;;2.43;61.16;96915.19;5114139;28;20191;-62
2022/03/11 02:43:37;;;;;;;18.77;11.83;;;;;;;2.34;61.86;96908.47;5114429;28;20204;-63
2022/03/11 02:46:03;;;;;;;22.10;12.97;;;;;;;2.33;61.17;96904.25;5114700;28;20211;-62
2022/03/11 02:48:29;;;;;;;20.73;12.23;;;;;;;2.35;61.97;96910.84;5096493;28;20275;-62
2022/03/11 02:50:54;;;;;;;18.67;12.33;;;;;;;2.28;62.29;96902.19;5114686;28;20260;-62
2022/03/11 02:53:20;;;;;;;19.40;12.87;;;;;;;2.31;62.34;96903.63;5114327;28;20192;-62
2022/03/11 02:55:46;;;;;;;22.90;12.83;;;;;;;2.27;62.39;96898.00;5114383;28;20183;-62
2022/03/11 02:58:11;;;;;;;18.57;11.60;;;;;;;2.28;61.93;96901.41;5113901;28;20184;-62
2022/03/11 03:00:37;;;;;;;29.10;12.90;;;;;;;2.23;62.03;96901.09;5113547;28;20229;-62
2022/03/11 03:03:02;;;;;;;24.27;12.70;;;;;;;2.07;62.38;96892.44;5114106;28;20203;-62
2022/03/11 03:05:28;;;;;;;21.90;13.13;;;;;;;1.99;62.34;96895.09;5114125;28;20636;-62
2022/03/11 03:07:53;;;;;;;23.70;12.83;;;;;;;2.00;62.25;96890.75;5096336;28;20194;-62
2022/03/11 03:10:19;;;;;;;21.53;11.83;;;;;;;2.02;62.53;96888.75;5114060;28;20244;-62
2022/03/11 03:12:44;;;;;;;21.87;13.00;;;;;;;2.06;62.00;96893.41;5114330;28;20196;-62
2022/03/11 03:15:10;;;;;;;21.33;13.17;;;;;;;1.86;62.34;96889.66;5113940;28;20253;-62
2022/03/11 03:17:36;;;;;;;21.17;12.53;;;;;;;1.83;62.96;96894.38;5114239;28;20184;-62
2022/03/11 03:20:03;;;;;;;20.57;12.80;;;;;;;1.86;62.47;96888.84;5113904;28;20215;-62
2022/03/11 03:22:29;;;;;;;20.90;12.43;;;;;;;1.89;62.31;96884.19;5113937;28;20243;-63
2022/03/11 03:24:54;;;;;;;19.00;12.13;;;;;;;1.81;62.32;96889.38;5113962;28;20207;-62
2022/03/11 03:27:19;;;;;;;17.53;11.87;;;;;;;1.78;62.48;96894.09;5113882;28;20637;-63
2022/03/11 03:29:45;;;;;;;19.93;12.70;;;;;;;1.73;62.75;96891.97;5113411;28;20210;-62
2022/03/11 03:32:10;;;;;;;22.80;12.83;;;;;;;1.66;62.69;96888.47;5113735;28;20180;-62
2022/03/11 03:34:37;;;;;;;21.57;13.00;;;;;;;1.64;62.44;96896.38;5113523;28;20560;-62
2022/03/11 03:37:07;;;;;;;20.77;12.97;;;;;;;1.58;62.96;96891.88;5113453;28;20186;-62
2022/03/11 03:39:32;;;;;;;23.30;12.97;;;;;;;1.58;62.27;96889.31;5113156;28;20231;-62
2022/03/11 03:41:58;;;;;;;17.77;12.20;;;;;;;1.51;62.80;96890.13;5113128;28;20286;-62
2022/03/11 03:44:23;;;;;;;19.97;12.70;;;;;;;1.53;62.92;96891.59;5113216;28;20180;-62
2022/03/11 03:46:49;;;;;;;18.63;12.63;;;;;;;1.60;62.41;96891.72;5113428;28;20188;-62
2022/03/11 03:49:15;;;;;;;18.47;12.10;;;;;;;1.39;62.14;96889.72;5113790;28;20270;-62
2022/03/11 03:51:41;;;;;;;20.87;12.77;;;;;;;1.44;62.40;96889.22;5095390;28;20231;-63
2022/03/11 03:54:11;;;;;;;17.50;11.20;;;;;;;1.44;62.10;96879.69;5113311;28;20195;-62
2022/03/11 03:56:38;;;;;;;21.63;12.63;;;;;;;1.34;62.18;96884.22;5113356;28;20188;-62
2022/03/11 03:59:07;;;;;;;17.80;11.93;;;;;;;1.31;61.75;96891.50;5095070;28;20275;-62
2022/03/11 04:01:36;;;;;;;22.33;12.43;;;;;;;1.24;62.25;96881.03;5113300;28;20293;-62
2022/03/11 04:04:03;;;;;;;22.70;11.47;;;;;;;1.21;61.65;96883.97;5113034;28;20187;-62
2022/03/11 04:06:30;;;;;;;21.53;12.80;;;;;;;1.22;61.84;96883.00;5113090;28;20183;-62
2022/03/11 04:08:58;;;;;;;18.27;11.30;;;;;;;1.09;61.99;96877.53;5095331;28;20545;-62
2022/03/11 04:11:25;;;;;;;20.70;11.67;;;;;;;1.07;61.41;96877.69;5113297;28;20191;-62
2022/03/11 04:13:51;;;;;;;20.47;11.67;;;;;;;1.08;61.30;96875.91;5113058;28;20188;-62
2022/03/11 04:16:18;;;;;;;21.93;12.53;;;;;;;1.07;61.19;96879.47;5113012;28;20176;-62
2022/03/11 04:18:44;;;;;;;20.97;11.00;;;;;;;1.07;61.40;96880.28;5113351;28;20187;-62
2022/03/11 04:21:10;;;;;;;17.87;11.03;;;;;;;0.94;60.78;96874.03;5113192;28;20513;-62
2022/03/11 04:23:35;;;;;;;19.03;11.13;;;;;;;1.02;60.32;96874.78;5094730;28;20206;-61
2022/03/11 04:26:02;;;;;;;18.10;11.50;;;;;;;0.95;60.88;96876.41;5112688;28;20552;-62
2022/03/11 04:28:27;;;;;;;18.03;10.90;;;;;;;0.79;60.73;96881.59;5113136;28;20229;-62
2022/03/11 04:30:52;;;;;;;21.40;10.60;;;;;;;0.81;60.26;96882.25;5112456;28;20180;-62
2022/03/11 04:33:18;;;;;;;17.17;10.97;;;;;;;0.85;60.62;96880.94;5112709;28;20686;-62
2022/03/11 04:35:43;;;;;;;15.90;10.27;;;;;;;0.82;60.28;96883.88;5112831;28;20180;-62
2022/03/11 04:38:09;;;;;;;17.87;11.00;;;;;;;0.75;60.47;96880.31;5112831;28;20180;-61
2022/03/11 04:40:35;;;;;;;15.27;10.70;;;;;;;0.82;59.53;96879.53;5113171;28;20216;-61
2022/03/11 04:43:01;;;;;;;20.30;10.37;;;;;;;0.74;59.56;96879.53;5112709;28;20212;-62
2022/03/11 04:45:27;;;;;;;18.03;10.00;;;;;;;0.76;59.25;96874.19;5112533;28;20263;-62
2022/03/11 04:47:52;;;;;;;18.40;9.60;;;;;;;0.59;59.57;96872.59;5116098;28;20203;-61
2022/03/11 04:50:18;;;;;;;13.77;9.23;;;;;;;0.58;59.48;96874.38;5098386;28;20211;-61
2022/03/11 04:52:43;;;;;;;14.80;9.50;;;;;;;0.63;58.93;96871.31;5116923;28;20180;-61
2022/03/11 04:55:09;;;;;;;16.77;9.50;;;;;;;0.60;59.08;96877.59;5098349;28;20245;-62
2022/03/11 04:57:34;;;;;;;15.57;9.33;;;;;;;0.44;58.77;96876.81;5116410;28;20636;-62
2022/03/11 05:00:00;;;;;;;14.47;9.07;;;;;;;0.47;59.04;96885.00;5115727;28;20188;-62
2022/03/11 05:02:27;;;;;;;14.83;8.90;;;;;;;0.45;58.66;96875.84;5116707;28;20252;-62
2022/03/11 05:04:53;;;;;;;14.83;9.03;;;;;;;0.59;58.54;96870.03;5116929;28;20188;-62
2022/03/11 05:07:19;;;;;;;14.30;9.27;;;;;;;0.57;57.78;96874.53;5116545;28;20190;-62
2022/03/11 05:09:45;;;;;;;16.77;9.00;;;;;;;0.52;57.36;96869.06;5116546;28;20176;-62
2022/03/11 05:12:11;;;;;;;13.43;8.80;;;;;;;0.51;57.58;96870.81;5116619;28;20544;-62
2022/03/11 05:14:37;;;;;;;14.93;9.37;;;;;;;0.48;57.32;96871.16;5116549;28;20187;-62
2022/03/11 05:17:03;;;;;;;10.70;7.20;;;;;;;0.44;57.49;96877.63;5116584;28;20198;-62
2022/03/11 05:19:28;;;;;;;12.03;8.83;;;;;;;0.40;57.51;96878.88;5107808;28;20267;-62
2022/03/11 05:21:54;;;;;;;12.83;9.07;;;;;;;0.32;57.48;96878.91;5116445;28;20203;-62
2022/03/11 05:24:19;;;;;;;12.70;7.90;;;;;;;0.33;57.10;96878.75;5116386;28;20184;-62
2022/03/11 05:26:45;;;;;;;27.87;7.17;;;;;;;0.35;57.23;96879.38;5116039;28;20225;-62
2022/03/11 05:29:10;;;;;;;12.60;7.40;;;;;;;0.38;56.45;96880.84;5115625;28;20207;-62
2022/03/11 05:31:35;;;;;;;10.60;6.90;;;;;;;0.23;56.71;96880.63;5116195;28;20200;-62
2022/03/11 05:34:01;;;;;;;13.27;7.50;;;;;;;0.31;56.85;96890.16;5115774;28;20648;-62
2022/03/11 05:36:26;;;;;;;13.53;7.70;;;;;;;0.26;56.50;96893.22;5115987;28;20180;-61
2022/03/11 05:38:51;;;;;;;10.87;7.70;;;;;;;0.26;56.10;96892.41;5115458;28;20621;-61
2022/03/11 05:41:17;;;;;;;12.43;7.13;;;;;;;0.24;55.92;96886.59;5115265;28;20706;-62
2022/03/11 05:43:43;;;;;;;11.60;7.53;;;;;;;0.19;55.98;96891.44;5097243;28;20231;-61
2022/03/11 05:46:09;;;;;;;10.20;7.13;;;;;;;0.34;55.41;96897.56;5115857;28;20180;-61
2022/03/11 05:48:34;;;;;;;10.60;6.73;;;;;;;0.18;55.79;96897.53;5116077;28;20632;-61
2022/03/11 05:51:00;;;;;;;15.37;6.87;;;;;;;0.10;55.85;96897.53;5115867;28;20184;-61
2022/03/11 05:53:26;;;;;;;11.70;6.93;;;;;;;0.13;55.84;96900.59;5115061;28;20180;-61
2022/03/11 05:55:51;;;;;;;11.93;7.50;;;;;;;0.40;54.72;96892.56;5115620;28;20187;-63
2022/03/11 05:58:17;;;;;;;14.53;6.90;;;;;;;0.37;54.50;96887.75;5114143;28;20186;-61
2022/03/11 06:00:42;;;;;;;9.57;6.77;;;;;;;0.30;54.43;96885.97;5104446;28;20196;-61
2022/03/11 06:03:07;;;;;;;8.00;6.27;;;;;;;0.29;54.33;96880.00;5113345;28;20267;-61
2022/03/11 06:05:33;;;;;;;11.17;6.73;;;;;;;0.34;53.83;96885.47;5115262;28;20184;-61
2022/03/11 06:07:59;;;;;;;12.00;6.43;;;;;;;0.47;53.44;96887.59;5096179;28;20176;-62
2022/03/11 06:10:25;;;;;;;8.60;5.60;;;;;;;0.44;52.92;96892.28;5096883;28;20172;-61
2022/03/11 06:12:50;;;;;;;9.33;5.97;;;;;;;0.53;52.69;96893.88;5114937;28;20525;-62
2022/03/11 06:15:16;;;;;;;8.30;5.57;;;;;;;0.56;52.06;96891.78;5114738;28;20210;-61
2022/03/11 06:17:42;;;;;;;10.13;5.93;;;;;;;0.66;51.88;96884.69;5114745;28;20237;-61
2022/03/11 06:20:09;;;;;;;8.90;6.07;;;;;;;0.87;50.78;96896.28;5115267;28;20257;-62
2022/03/11 06:22:46;;;;;;;9.13;5.60;;;;;;;0.96;50.65;96892.72;5115367;28;20200;-62
2022/03/11 06:25:11;;;;;;;8.93;5.40;;;;;;;1.03;50.68;96894.47;5114658;28;20183;-62
2022/03/11 06:27:37;;;;;;;8.97;5.93;;;;;;;1.19;49.84;96896.22;5115008;28;20176;-62
2022/03/11 06:30:02;;;;;;;9.03;5.43;;;;;;;1.15;50.11;96898.34;5114965;28;20313;-61
2022/03/11 06:32:28;;;;;;;12.30;5.57;;;;;;;1.09;49.35;96896.41;5114608;28;20675;-62
2022/03/11 06:34:54;;;;;;;10.18;6.85;;;;;;;1.14;49.29;96901.06;5113420;28;20393;-61
2022/03/11 06:37:19;;;;;;;9.97;7.23;;;;;;;1.25;48.63;96905.88;5113767;28;20388;-61
2022/03/11 06:39:45;;;;;;;10.03;5.97;;;;;;;1.34;49.21;96901.53;5114538;28;20480;-62
2022/03/11 06:42:10;;;;;;;9.63;5.67;;;;;;;1.54;47.83;96890.63;5114322;28;20203;-62
2022/03/11 06:44:36;;;;;;;8.17;5.30;;;;;;;1.49;49.12;96898.06;5114622;28;20267;-63
2022/03/11 06:47:01;;;;;;;11.90;5.23;;;;;;;1.89;48.08;96891.13;5114929;28;20203;-63
2022/03/11 06:49:27;;;;;;;10.60;5.33;;;;;;;1.98;47.09;96895.25;5114850;28;20183;-63
2022/03/11 06:51:52;;;;;;;9.77;5.50;;;;;;;1.93;46.84;96894.97;5114613;28;20188;-63
2022/03/11 06:54:18;;;;;;;7.17;5.07;;;;;;;1.93;46.34;96892.38;5096256;28;20176;-65
2022/03/11 06:56:43;;;;;;;8.83;5.30;;;;;;;2.04;47.19;96899.75;5114127;28;20632;-65
2022/03/11 06:59:09;;;;;;;7.50;4.97;;;;;;;2.15;46.84;96898.56;5114363;28;20644;-63
2022/03/11 07:01:34;;;;;;;9.00;5.83;;;;;;;2.28;46.71;96894.44;5113563;28;20227;-63
2022/03/11 07:04:01;;;;;;;7.10;5.20;;;;;;;2.22;47.04;96897.72;5113712;28;20187;-63
2022/03/11 07:06:26;;;;;;;7.37;5.90;;;;;;;2.31;45.92;96896.66;5114678;28;20176;-63
2022/03/11 07:08:52;;;;;;;10.77;5.57;;;;;;;2.46;46.36;96894.13;5114240;28;20666;-63
2022/03/11 07:11:17;;;;;;;7.07;5.20;;;;;;;2.35;46.12;96897.94;5113976;28;20188;-63
2022/03/11 07:13:44;;;;;;;7.63;5.47;;;;;;;2.55;46.42;96902.66;5113770;28;20191;-63
2022/03/11 07:16:10;;;;;;;9.70;6.07;;;;;;;2.51;46.11;96902.16;5113210;28;20180;-64
2022/03/11 07:18:36;;;;;;;10.30;6.72;;;;;;;2.70;45.55;96908.66;5111681;28;20501;-64
2022/03/11 07:21:01;;;;;;;9.75;6.82;;;;;;;2.82;45.19;96909.88;5112037;28;20393;-63
2022/03/11 07:23:27;;;;;;;9.60;6.85;;;;;;;2.65;45.75;96909.19;5112776;28;20408;-64
2022/03/11 07:25:53;;;;;;;9.32;6.45;;;;;;;2.77;45.24;96907.00;5112344;28;20873;-63
2022/03/11 07:28:20;;;;;;;8.93;6.40;;;;;;;2.65;45.78;96916.16;5112389;28;20472;-63
2022/03/11 07:30:45;;;;;;;8.65;6.60;;;;;;;2.56;45.76;96909.44;5111999;28;20451;-65
2022/03/11 07:33:12;;;;;;;8.95;6.20;;;;;;;2.88;44.76;96904.81;5111852;28;20419;-64
2022/03/11 07:35:38;;;;;;;10.57;5.87;;;;;;;2.96;45.19;96914.25;5112128;28;20392;-65
2022/03/11 07:38:03;;;;;;;15.88;6.68;;;;;;;3.34;44.08;96913.22;5111606;28;21263;-64
2022/03/11 07:40:28;;;;;;;10.93;6.30;;;;;;;3.45;44.03;96916.38;5111613;28;20489;-66
2022/03/11 07:42:54;;;;;;;10.47;6.47;;;;;;;3.50;44.41;96914.88;5111855;28;20494;-64
2022/03/11 07:45:20;;;;;;;9.87;6.30;;;;;;;3.73;49.45;96915.56;5111826;28;20392;-65
2022/03/11 07:47:45;;;;;;;8.97;6.30;;;;;;;6.82;57.63;96911.66;5112080;28;20844;-64
2022/03/11 07:50:11;;;;;;;9.37;7.03;;;;;;;5.90;40.84;96911.44;5111661;28;20392;-61
2022/03/11 07:52:37;;;;;;;9.23;6.82;;;;;;;5.26;41.38;96908.25;5110874;28;20483;-62
2022/03/11 07:55:05;;;;;;;11.27;7.20;;;;;;;4.86;41.62;96907.16;5093207;28;20404;-64
2022/03/11 07:57:32;;;;;;;10.90;7.03;;;;;;;4.63;42.56;96904.75;5111826;28;20441;-62
2022/03/11 07:59:57;;;;;;;9.82;7.07;;;;;;;4.50;42.93;96910.66;5110799;28;20389;-62
2022/03/11 08:02:22;;;;;;;10.50;7.73;;;;;;;4.57;42.91;96914.09;5107454;28;20506;-62
2022/03/11 08:04:48;;;;;;;11.80;7.40;;;;;;;4.50;43.13;96905.44;5112041;28;20388;-62
2022/03/11 08:07:13;;;;;;;11.97;7.40;;;;;;;4.77;42.84;96900.50;5093438;28;20457;-62
2022/03/11 08:09:38;;;;;;;13.10;7.55;;;;;;;4.95;42.87;96909.44;5111857;28;20872;-62
2022/03/11 08:12:04;;;;;;;11.93;7.97;;;;;;;5.33;41.80;96906.50;5112309;28;20570;-62
2022/03/11 08:14:31;;;;;;;11.65;8.10;;;;;;;5.12;42.79;96911.75;5111792;28;20449;-63
2022/03/11 08:16:56;;;;;;;9.75;7.28;;;;;;;5.25;41.90;96910.03;5111695;28;20427;-62
2022/03/11 08:19:23;;;;;;;12.40;7.40;;;;;;;5.29;42.31;96918.28;5111691;28;20877;-62
2022/03/11 08:21:49;;;;;;;10.60;7.10;;;;;;;5.22;41.51;96913.03;5094582;28;20699;-62
2022/03/11 08:24:14;;;;;;;9.43;7.30;;;;;;;5.34;41.57;96911.53;5115713;28;20875;-62
2022/03/11 08:26:40;;;;;;;9.97;7.07;;;;;;;5.17;41.87;96910.19;5116059;28;20380;-62
2022/03/11 08:29:06;;;;;;;10.30;7.50;;;;;;;4.93;42.76;96908.81;5115674;28;20388;-63
2022/03/11 08:31:32;;;;;;;10.35;7.30;;;;;;;4.89;42.48;96911.97;5097663;28;20396;-63
2022/03/11 08:33:58;;;;;;;9.07;7.13;;;;;;;4.98;42.98;96914.25;5115955;28;20449;-63
2022/03/11 08:36:23;;;;;;;14.00;7.70;;;;;;;5.09;42.28;96906.94;5115498;28;20384;-63
2022/03/11 08:38:49;;;;;;;12.73;6.70;;;;;;;5.07;42.99;96908.94;5096432;28;20434;-63
2022/03/11 08:41:14;;;;;;;12.27;7.60;;;;;;;5.45;41.99;96904.97;5078735;28;20472;-65
2022/03/11 08:43:41;;;;;;;10.77;6.57;;;;;;;5.57;42.17;96906.06;5115437;28;20738;-65
2022/03/11 08:46:11;;;;;;;12.32;7.40;;;;;;;5.73;41.95;96910.13;5115523;28;20380;-63
2022/03/11 08:48:37;;;;;;;10.45;7.60;;;;;;;5.79;41.53;96906.75;5115532;28;20384;-63
2022/03/11 08:51:03;;;;;;;10.25;7.20;;;;;;;5.82;41.81;96904.56;5115128;28;20941;-63
2022/03/11 08:53:29;;;;;;;10.30;7.65;;;;;;;6.19;41.35;96903.31;5115503;28;20392;-63
2022/03/11 08:55:54;;;;;;;10.10;7.32;;;;;;;6.37;40.61;96899.38;5115403;28;20718;-63
2022/03/11 08:58:20;;;;;;;11.17;7.63;;;;;;;6.25;41.32;96899.94;5115192;28;20395;-65
2022/03/11 09:00:45;;;;;;;10.07;7.45;;;;;;;6.46;40.41;96899.00;5114365;28;20792;-63
2022/03/11 09:03:12;;;;;;;9.90;7.32;;;;;;;5.71;41.06;96892.13;5115158;28;20403;-63
2022/03/11 09:05:39;;;;;;;11.27;7.57;;;;;;;5.61;41.92;96893.47;5097056;28;20396;-63
2022/03/11 09:08:07;;;;;;;11.20;7.00;;;;;;;5.60;41.97;96891.84;5115192;28;20404;-63
2022/03/11 09:10:33;;;;;;;9.68;7.15;;;;;;;6.12;41.32;96884.31;5114391;28;20869;-63
2022/03/11 09:12:59;;;;;;;11.63;7.50;;;;;;;6.09;41.38;96889.88;5114610;28;20491;-63
2022/03/11 09:15:24;;;;;;;10.63;6.60;;;;;;;6.20;40.34;96884.13;5114983;28;20888;-63
2022/03/11 09:17:50;;;;;;;11.80;7.37;;;;;;;6.15;40.86;96880.50;5115118;28;20392;-63
2022/03/11 09:20:15;;;;;;;10.10;7.13;;;;;;;6.33;40.55;96885.16;5114911;28;20388;-63
2022/03/11 09:22:41;;;;;;;11.43;7.60;;;;;;;5.89;40.69;96888.22;5114709;28;20497;-63
2022/03/11 09:25:07;;;;;;;10.07;7.03;;;;;;;5.91;40.73;96876.59;5095694;28;20428;-63
2022/03/11 09:27:33;;;;;;;11.02;6.80;;;;;;;5.63;41.53;96875.88;5114255;28;20797;-63
2022/03/11 09:29:59;;;;;;;8.85;6.80;;;;;;;6.06;40.42;96876.47;5114335;28;20392;-63
2022/03/11 09:32:25;;;;;;;9.18;6.97;;;;;;;5.93;40.85;96871.22;5114501;28;20395;-63
2022/03/11 09:34:51;;;;;;;9.85;6.60;;;;;;;5.94;41.07;96863.22;5114456;28;20392;-63
2022/03/11 09:37:17;;;;;;;11.83;7.17;;;;;;;5.64;41.32;96867.88;5114354;28;20385;-63
2022/03/11 09:39:42;;;;;;;10.50;6.80;;;;;;;5.47;41.89;96866.59;5113056;28;20407;-64
2022/03/11 09:42:09;;;;;;;11.93;7.00;;;;;;;5.72;41.42;96861.72;5113772;28;20791;-63
2022/03/11 09:44:34;;;;;;;11.60;6.88;;;;;;;5.68;41.37;96856.13;5114244;28;20408;-64
2022/03/11 09:47:00;;;;;;;10.23;7.40;;;;;;;5.86;41.54;96858.97;5095885;28;20489;-63
2022/03/11 09:49:26;;;;;;;10.02;6.78;;;;;;;5.73;41.28;96861.53;5113722;28;20388;-63
2022/03/11 09:51:52;;;;;;;10.77;7.57;;;;;;;5.88;41.29;96865.81;5114088;28;20493;-63
2022/03/11 09:54:17;;;;;;;8.48;6.38;;;;;;;5.84;40.81;96855.78;5114350;28;20438;-63
2022/03/11 09:56:44;;;;;;;11.20;7.27;;;;;;;5.80;41.06;96858.94;5114327;28;20833;-63
2022/03/11 09:59:11;;;;;;;9.80;7.20;;;;;;;6.10;40.88;96856.88;5114306;28;20385;-63
2022/03/11 10:01:38;;;;;;;8.50;6.75;;;;;;;6.10;41.28;96857.66;5113420;28;20872;-63
2022/03/11 10:04:06;;;;;;;9.73;6.63;;;;;;;6.23;40.83;96847.31;5113908;28;20407;-63
2022/03/11 10:06:40;;;;;;;9.68;7.13;;;;;;;6.61;40.42;96849.34;5113912;28;20757;-65
2022/03/11 10:09:07;;;;;;;11.32;6.82;;;;;;;6.45;40.51;96850.53;5114279;28;20399;-64
2022/03/11 10:11:35;;;;;;;9.65;7.55;;;;;;;6.53;40.30;96855.53;5114131;28;20480;-63
2022/03/11 10:14:08;;;;;;;10.48;7.25;;;;;;;6.06;41.74;96851.25;5113183;28;20399;-64
2022/03/11 10:16:35;;;;;;;9.18;7.05;;;;;;;6.46;41.63;96844.34;5113317;28;20398;-65
2022/03/11 10:19:05;;;;;;;14.75;6.93;;;;;;;7.08;40.59;96843.09;5095557;28;20384;-68
2022/03/11 10:21:36;;;;;;;11.48;7.55;;;;;;;7.27;40.31;96842.25;5113459;28;20385;-63
2022/03/11 10:24:05;;;;;;;11.25;7.50;;;;;;;7.40;39.81;96846.66;5113470;28;20404;-63
2022/03/11 10:26:42;;;;;;;11.03;7.83;;;;;;;6.88;40.90;96844.94;5113270;28;20457;-64
2022/03/11 10:29:15;;;;;;;10.50;7.53;;;;;;;6.55;40.94;96845.72;5113627;28;20461;-63
2022/03/11 10:31:43;;;;;;;11.15;7.80;;;;;;;6.71;41.13;96844.53;5113318;28;20380;-63
2022/03/11 10:34:11;;;;;;;11.07;7.72;;;;;;;6.77;41.06;96848.13;5113477;28;20892;-63
2022/03/11 10:36:37;;;;;;;10.55;8.00;;;;;;;6.95;41.00;96848.34;5113308;28;20392;-63
2022/03/11 10:39:26;;;;;;;11.83;7.70;;;;;;;7.15;40.66;96846.50;5113488;28;20895;-63
2022/03/11 10:41:56;;;;;;;9.70;7.57;;;;;;;7.37;40.23;96852.25;5099417;28;20425;-63
2022/03/11 10:44:27;;;;;;;11.82;7.57;;;;;;;7.28;40.45;96850.88;5112908;28;20395;-63
2022/03/11 10:47:18;;;;;;;12.85;8.05;;;;;;;7.72;40.17;96840.53;5095135;28;20472;-63
2022/03/11 10:49:48;;;;;;;12.38;7.75;;;;;;;7.70;39.67;96834.69;5113239;28;20861;-63
2022/03/11 10:52:13;;;;;;;11.23;7.60;;;;;;;7.86;39.71;96842.06;5113065;28;20437;-63
2022/03/11 10:54:42;;;;;;;12.93;7.63;;;;;;;7.99;39.35;96843.00;5094927;28;20396;-64
2022/03/11 10:57:10;;;;;;;11.00;8.02;;;;;;;7.74;39.89;96840.31;5113102;28;20400;-64
2022/03/11 10:59:36;;;;;;;10.68;7.80;;;;;;;7.99;38.88;96833.38;5077241;28;20913;-65
2022/03/11 11:02:02;;;;;;;11.57;7.80;;;;;;;8.09;38.75;96835.50;5112268;28;20424;-64
2022/03/11 11:04:27;;;;;;;12.80;7.80;;;;;;;7.99;38.66;96832.56;5112707;28;20392;-64
2022/03/11 11:06:53;;;;;;;10.40;7.53;;;;;;;8.14;38.93;96833.06;5112401;28;20869;-63
2022/03/11 11:09:22;;;;;;;9.45;7.18;;;;;;;8.34;38.86;96821.56;5094137;28;20809;-65
2022/03/11 11:11:49;;;;;;;10.45;7.28;;;;;;;8.64;37.91;96816.50;5112797;28;20492;-63
2022/03/11 11:14:14;;;;;;;8.93;7.20;;;;;;;8.78;38.10;96819.81;5112553;28;20403;-64
2022/03/11 11:16:42;;;;;;;9.30;6.95;;;;;;;8.91;37.94;96811.06;5112513;28;20741;-64
2022/03/11 11:19:10;;;;;;;12.50;7.18;;;;;;;9.15;37.69;96805.78;5112449;28;20393;-64
2022/03/11 11:21:38;;;;;;;8.77;7.13;;;;;;;9.32;37.16;96821.69;5111954;28;20392;-61
2022/03/11 11:24:05;;;;;;;10.23;7.80;;;;;;;9.05;37.67;96808.09;5112455;28;20892;-64
2022/03/11 11:26:31;;;;;;;10.52;7.22;;;;;;;9.30;37.90;96802.03;5112449;28;20416;-65